Time;durP1;ratioP1;P1;durP2;ratioP2;P2;SDS_P1;SDS_P2;PMS_P1;PMS_P2;Temp;Humidity;BMP_temperature;BMP_pressure;BME280_temperature;BME280_humidity;BME280_pressure;Samples;Min_cycle;Max_cycle;Signal;HPM_P1;HPM_P2
2023/04/09 00:00:15;;;;;;;;;;;10.60;99.90;;;;;;5033359;28;19913;-70
2023/04/09 00:02:41;;;;;;;;;;;10.50;99.90;;;;;;5033578;28;19912;-69
2023/04/09 00:05:07;;;;;;;;;;;10.50;99.90;;;;;;5033298;28;19996;-69
2023/04/09 00:07:32;;;;;;;;;;;10.50;99.90;;;;;;5033368;28;20254;-70
2023/04/09 00:09:58;;;;;;;;;;;10.40;99.90;;;;;;5016037;28;20273;-70
2023/04/09 00:12:23;;;;;;;;;;;10.40;99.90;;;;;;5033498;28;20374;-69
2023/04/09 00:14:49;;;;;;;;;;;10.40;99.90;;;;;;5033371;28;19905;-69
2023/04/09 00:17:15;;;;;;;;;;;10.30;99.90;;;;;;5033153;28;19947;-69
2023/04/09 00:19:40;;;;;;;;;;;10.30;99.90;;;;;;5033354;28;19954;-69
2023/04/09 00:22:06;;;;;;;;;;;10.30;99.90;;;;;;5017144;28;20000;-69
2023/04/09 00:24:31;;;;;;;;;;;10.30;99.90;;;;;;4996069;28;19909;-70
2023/04/09 00:26:56;;;;;;;;;;;10.20;99.90;;;;;;4995801;28;19909;-69
2023/04/09 00:29:22;;;;;;;;;;;10.20;99.90;;;;;;5013370;28;19906;-69
2023/04/09 00:31:47;;;;;;;;;;;10.10;99.90;;;;;;5013496;28;19936;-69
2023/04/09 00:34:13;;;;;;;;;;;10.10;99.90;;;;;;4995702;28;19912;-69
2023/04/09 00:36:38;;;;;;;;;;;10.20;99.90;;;;;;5013200;28;19960;-68
2023/04/09 00:39:04;;;;;;;;;;;10.10;99.90;;;;;;5013388;28;19911;-70
2023/04/09 00:41:29;;;;;;;;;;;10.00;99.90;;;;;;5013648;28;20338;-70
2023/04/09 00:43:55;;;;;;;;;;;10.00;99.90;;;;;;5013340;28;19923;-69
2023/04/09 00:46:20;;;;;;;;;;;10.00;99.90;;;;;;5013343;28;19944;-69
2023/04/09 00:48:46;;;;;;;;;;;9.90;99.90;;;;;;5013224;28;19960;-69
2023/04/09 00:51:11;;;;;;;;;;;9.90;99.90;;;;;;5020408;28;19996;-67
2023/04/09 00:53:37;;;;;;;;;;;9.90;99.90;;;;;;5036370;28;19959;-69
2023/04/09 00:56:02;;;;;;;;;;;9.90;99.90;;;;;;5036698;28;19905;-70
2023/04/09 00:58:28;;;;;;;;;;;9.90;99.90;;;;;;5035093;28;20368;-70
2023/04/09 01:00:54;;;;;;;;;;;9.90;99.90;;;;;;5036463;28;19974;-69
2023/04/09 01:03:20;;;;;;;;;;;9.90;99.90;;;;;;5036304;28;19994;-69
2023/04/09 01:05:48;;;;;;;;;;;10.00;99.90;;;;;;5035161;28;19916;-69
2023/04/09 01:08:13;;;;;;;;;;;10.00;99.90;;;;;;5034951;28;20031;-70
2023/04/09 01:10:39;;;;;;;;;;;10.00;99.90;;;;;;5035079;28;20342;-69
2023/04/09 01:13:31;;;;;;;;;;;9.90;99.90;;;;;;5036332;28;19945;-69
2023/04/09 01:15:59;;;;;;;;;;;10.00;99.90;;;;;;5007714;28;19911;-70
2023/04/09 01:18:36;;;;;;;;;;;9.90;99.90;;;;;;5040240;28;19912;-70
2023/04/09 01:21:08;;;;;;;;;;;9.90;99.90;;;;;;5032242;28;20341;-70
2023/04/09 01:23:33;;;;;;;;;;;9.90;99.90;;;;;;5018218;28;19904;-69
2023/04/09 01:26:06;;;;;;;;;;;9.90;99.90;;;;;;5035869;28;19948;-70
2023/04/09 01:28:31;;;;;;;;;;;9.90;99.90;;;;;;5035980;28;20354;-70
2023/04/09 01:30:59;;;;;;;;;;;9.90;99.90;;;;;;5036283;28;19905;-69
2023/04/09 01:33:25;;;;;;;;;;;9.90;99.90;;;;;;5035758;28;19975;-69
2023/04/09 01:35:52;;;;;;;;;;;10.00;99.90;;;;;;5018038;28;19952;-69
2023/04/09 01:38:19;;;;;;;;;;;9.90;99.90;;;;;;5035687;28;20309;-69
2023/04/09 01:40:44;;;;;;;;;;;9.90;99.90;;;;;;5018090;28;19954;-69
2023/04/09 01:43:11;;;;;;;;;;;9.90;99.90;;;;;;5035678;28;20307;-69
2023/04/09 01:45:37;;;;;;;;;;;9.90;99.90;;;;;;5017821;28;20467;-69
2023/04/09 01:48:02;;;;;;;;;;;9.80;99.90;;;;;;5017848;28;19991;-70
2023/04/09 01:50:28;;;;;;;;;;;9.80;99.90;;;;;;5035474;28;20384;-69
2023/04/09 01:52:53;;;;;;;;;;;9.70;99.90;;;;;;5035398;28;20311;-70
2023/04/09 01:55:19;;;;;;;;;;;9.70;99.90;;;;;;5035741;28;20255;-68
2023/04/09 01:57:44;;;;;;;;;;;9.70;99.90;;;;;;5017741;28;19909;-68
2023/04/09 02:00:11;;;;;;;;;;;9.70;99.90;;;;;;5035477;28;19928;-68
2023/04/09 02:02:41;;;;;;;;;;;9.70;99.90;;;;;;5035262;28;19948;-68
2023/04/09 02:05:09;;;;;;;;;;;9.70;99.90;;;;;;5034251;28;19988;-68
2023/04/09 02:07:40;;;;;;;;;;;9.70;99.90;;;;;;5034816;28;20008;-68
2023/04/09 02:10:07;;;;;;;;;;;9.70;99.90;;;;;;5034758;28;19905;-68
2023/04/09 02:12:35;;;;;;;;;;;9.70;99.90;;;;;;5035107;28;19943;-69
2023/04/09 02:15:01;;;;;;;;;;;9.70;99.90;;;;;;5034871;28;20286;-69
2023/04/09 02:17:27;;;;;;;;;;;9.60;99.90;;;;;;5033649;28;19904;-68
2023/04/09 02:19:52;;;;;;;;;;;9.50;99.90;;;;;;5017167;28;19976;-68
2023/04/09 02:22:18;;;;;;;;;;;9.50;99.90;;;;;;5018578;28;19905;-68
2023/04/09 02:24:45;;;;;;;;;;;9.50;99.90;;;;;;4997067;28;20278;-68
2023/04/09 02:27:10;;;;;;;;;;;9.50;99.90;;;;;;5014669;28;19958;-68
2023/04/09 02:29:35;;;;;;;;;;;9.60;99.90;;;;;;5014962;28;20377;-68
2023/04/09 02:32:01;;;;;;;;;;;9.60;99.90;;;;;;5015183;28;20393;-69
2023/04/09 02:34:27;;;;;;;;;;;9.60;99.90;;;;;;5014552;28;19905;-68
2023/04/09 02:36:52;;;;;;;;;;;9.60;99.90;;;;;;5014210;28;19909;-68
2023/04/09 02:39:18;;;;;;;;;;;9.60;99.90;;;;;;5014420;28;19912;-68
2023/04/09 02:41:43;;;;;;;;;;;9.60;99.90;;;;;;5014907;28;19916;-67
2023/04/09 02:44:08;;;;;;;;;;;9.60;99.90;;;;;;5014466;28;19913;-68
2023/04/09 02:46:34;;;;;;;;;;;9.60;99.90;;;;;;5014626;28;19955;-68
2023/04/09 02:48:59;;;;;;;;;;;9.60;99.90;;;;;;4997100;28;19905;-68
2023/04/09 02:51:26;;;;;;;;;;;9.60;99.90;;;;;;5023678;28;19909;-68
2023/04/09 02:53:51;;;;;;;;;;;9.60;99.90;;;;;;5033947;28;19904;-68
2023/04/09 02:56:17;;;;;;;;;;;9.60;99.90;;;;;;5034360;28;19905;-69
2023/04/09 02:58:42;;;;;;;;;;;9.70;99.90;;;;;;5034675;28;19959;-68
2023/04/09 03:01:08;;;;;;;;;;;9.70;99.90;;;;;;5034529;28;19912;-68
2023/04/09 03:03:33;;;;;;;;;;;9.60;99.90;;;;;;5034177;28;19912;-68
2023/04/09 03:05:59;;;;;;;;;;;9.60;99.90;;;;;;5034405;28;20381;-68
2023/04/09 03:08:24;;;;;;;;;;;9.60;99.90;;;;;;5033801;28;19913;-69
2023/04/09 03:10:50;;;;;;;;;;;9.50;99.90;;;;;;5034311;28;19912;-68
2023/04/09 03:13:15;;;;;;;;;;;9.50;99.90;;;;;;5034046;28;20466;-68
2023/04/09 03:15:41;;;;;;;;;;;9.50;99.90;;;;;;5032941;28;19905;-68
2023/04/09 03:18:06;;;;;;;;;;;9.40;99.90;;;;;;5032700;28;19935;-68
2023/04/09 03:20:31;;;;;;;;;;;9.50;99.90;;;;;;5034367;28;19920;-68
2023/04/09 03:22:57;;;;;;;;;;;9.50;99.90;;;;;;5016490;28;19905;-68
2023/04/09 03:25:22;;;;;;;;;;;9.50;99.90;;;;;;5034361;28;19905;-68
2023/04/09 03:27:48;;;;;;;;;;;9.60;99.90;;;;;;5034220;28;19909;-68
2023/04/09 03:30:13;;;;;;;;;;;9.40;99.90;;;;;;5033796;28;19905;-68
2023/04/09 03:32:39;;;;;;;;;;;9.50;99.90;;;;;;5033840;28;19931;-69
2023/04/09 03:35:05;;;;;;;;;;;9.30;99.90;;;;;;5034521;28;19909;-68
2023/04/09 03:37:30;;;;;;;;;;;9.30;99.90;;;;;;5018773;28;19905;-68
2023/04/09 03:39:55;;;;;;;;;;;9.30;99.90;;;;;;5034213;28;19905;-68
2023/04/09 03:42:21;;;;;;;;;;;9.30;99.90;;;;;;5033802;28;19955;-68
2023/04/09 03:44:46;;;;;;;;;;;9.30;99.90;;;;;;5033523;28;20010;-68
2023/04/09 03:47:12;;;;;;;;;;;9.20;99.90;;;;;;5033685;28;19916;-68
2023/04/09 03:49:37;;;;;;;;;;;9.30;99.90;;;;;;5033538;28;19956;-69
2023/04/09 03:52:03;;;;;;;;;;;9.30;99.90;;;;;;5019400;28;20393;-68
2023/04/09 03:54:29;;;;;;;;;;;9.10;99.90;;;;;;4996160;28;19905;-68
2023/04/09 03:56:55;;;;;;;;;;;9.20;99.90;;;;;;4996223;28;19971;-69
2023/04/09 03:59:20;;;;;;;;;;;9.10;99.90;;;;;;5025462;28;20362;-68
2023/04/09 04:01:46;;;;;;;;;;;9.20;99.90;;;;;;5032058;28;20337;-67
2023/04/09 04:04:12;;;;;;;;;;;9.20;99.90;;;;;;5032024;28;19996;-68
2023/04/09 04:06:37;;;;;;;;;;;9.10;99.90;;;;;;5032077;28;19905;-68
2023/04/09 04:09:03;;;;;;;;;;;9.10;99.90;;;;;;5033288;28;20014;-68
2023/04/09 04:11:28;;;;;;;;;;;9.10;99.90;;;;;;5033252;28;19939;-67
2023/04/09 04:13:54;;;;;;;;;;;9.00;99.90;;;;;;5033244;28;20343;-68
2023/04/09 04:16:20;;;;;;;;;;;8.90;99.90;;;;;;5033568;28;20401;-68
2023/04/09 04:18:45;;;;;;;;;;;8.90;99.90;;;;;;5033317;28;19905;-68
2023/04/09 04:21:11;;;;;;;;;;;8.90;99.90;;;;;;5032100;28;19956;-68
2023/04/09 04:23:37;;;;;;;;;;;8.80;99.90;;;;;;5033051;28;20281;-68
2023/04/09 04:26:08;;;;;;;;;;;8.70;99.90;;;;;;5033383;28;19911;-68
2023/04/09 04:28:34;;;;;;;;;;;8.70;99.90;;;;;;5019124;28;20345;-69
2023/04/09 04:31:00;;;;;;;;;;;8.70;99.90;;;;;;5037235;28;20277;-68
2023/04/09 04:33:25;;;;;;;;;;;8.60;99.90;;;;;;5037451;28;19905;-68
2023/04/09 04:35:51;;;;;;;;;;;8.60;99.90;;;;;;5037015;28;19951;-68
2023/04/09 04:38:16;;;;;;;;;;;8.60;99.90;;;;;;5019507;28;20323;-68
2023/04/09 04:40:42;;;;;;;;;;;8.50;99.90;;;;;;5037596;28;19905;-70
2023/04/09 04:43:07;;;;;;;;;;;8.50;99.90;;;;;;5037116;28;19909;-69
2023/04/09 04:45:33;;;;;;;;;;;8.40;99.90;;;;;;5020551;28;19924;-68
2023/04/09 04:47:58;;;;;;;;;;;8.40;99.90;;;;;;5039603;28;20373;-68
2023/04/09 04:50:24;;;;;;;;;;;8.30;99.90;;;;;;5037770;28;19905;-68
2023/04/09 04:52:49;;;;;;;;;;;8.30;99.90;;;;;;5038001;28;19905;-68
2023/04/09 04:55:15;;;;;;;;;;;8.20;99.90;;;;;;5037513;28;19916;-68
2023/04/09 04:57:40;;;;;;;;;;;8.10;99.90;;;;;;5020698;28;19905;-69
2023/04/09 05:00:06;;;;;;;;;;;8.10;99.90;;;;;;5039276;28;20370;-69
2023/04/09 05:02:31;;;;;;;;;;;8.00;99.90;;;;;;5038311;28;19956;-68
2023/04/09 05:04:57;;;;;;;;;;;8.00;99.90;;;;;;5020127;28;20309;-69
2023/04/09 05:07:22;;;;;;;;;;;8.00;99.90;;;;;;5036671;28;20361;-68
2023/04/09 05:09:48;;;;;;;;;;;7.90;99.90;;;;;;5037732;28;20276;-68
2023/04/09 05:12:14;;;;;;;;;;;7.90;99.90;;;;;;5019396;28;19958;-69
2023/04/09 05:14:39;;;;;;;;;;;7.80;99.90;;;;;;5037091;28;19909;-69
2023/04/09 05:17:05;;;;;;;;;;;7.80;99.90;;;;;;5036818;28;19909;-68
2023/04/09 05:19:30;;;;;;;;;;;7.80;99.90;;;;;;5019420;28;19909;-69
2023/04/09 05:21:56;;;;;;;;;;;7.70;99.90;;;;;;5024204;28;19916;-68
2023/04/09 05:24:21;;;;;;;;;;;7.70;99.90;;;;;;4999653;28;20317;-68
2023/04/09 05:26:47;;;;;;;;;;;7.70;99.90;;;;;;5000899;28;20281;-69
2023/04/09 05:29:12;;;;;;;;;;;7.70;99.90;;;;;;5018979;28;19928;-69
2023/04/09 05:31:39;;;;;;;;;;;7.70;99.90;;;;;;5036152;28;20250;-69
2023/04/09 05:34:05;;;;;;;;;;;7.70;99.90;;;;;;5038411;28;19909;-69
2023/04/09 05:36:31;;;;;;;;;;;7.70;99.90;;;;;;5037716;28;20285;-68
2023/04/09 05:38:56;;;;;;;;;;;7.70;99.90;;;;;;5036652;28;19912;-68
2023/04/09 05:41:21;;;;;;;;;;;7.60;99.90;;;;;;5037393;28;19905;-69
2023/04/09 05:43:47;;;;;;;;;;;7.60;99.90;;;;;;5037289;28;20384;-68
2023/04/09 05:46:12;;;;;;;;;;;7.60;99.90;;;;;;5037180;28;19912;-68
2023/04/09 05:48:38;;;;;;;;;;;7.60;99.90;;;;;;5034604;28;19916;-68
2023/04/09 05:51:03;;;;;;;;;;;7.50;99.90;;;;;;5034142;28;19909;-69
2023/04/09 05:53:30;;;;;;;;;;;7.40;99.90;;;;;;5037839;28;20000;-68
2023/04/09 05:55:55;;;;;;;;;;;7.50;99.90;;;;;;5021160;28;19913;-69
2023/04/09 05:58:21;;;;;;;;;;;7.40;99.90;;;;;;5020533;28;19913;-69
2023/04/09 06:00:46;;;;;;;;;;;7.50;99.90;;;;;;5036521;28;20000;-69
2023/04/09 06:03:12;;;;;;;;;;;7.40;99.90;;;;;;5035894;28;19905;-69
2023/04/09 06:05:37;;;;;;;;;;;7.40;99.90;;;;;;5036847;28;19905;-69
2023/04/09 06:08:03;;;;;;;;;;;7.40;99.90;;;;;;5036931;28;19909;-69
2023/04/09 06:10:30;;;;;;;;;;;7.40;99.90;;;;;;5037003;28;20380;-69
2023/04/09 06:12:56;;;;;;;;;;;7.50;99.90;;;;;;5034791;28;20354;-68
2023/04/09 06:15:21;;;;;;;;;;;7.50;99.90;;;;;;5035258;28;20116;-68
2023/04/09 06:17:47;;;;;;;;;;;7.50;99.90;;;;;;5034158;28;19956;-68
2023/04/09 06:20:12;;;;;;;;;;;7.60;99.90;;;;;;5035279;28;20000;-68
2023/04/09 06:22:38;;;;;;;;;;;7.70;99.90;;;;;;5035025;28;19916;-68
2023/04/09 06:25:03;;;;;;;;;;;7.80;99.90;;;;;;5035169;28;20340;-68
2023/04/09 06:27:29;;;;;;;;;;;8.00;99.90;;;;;;5034790;28;19955;-68
2023/04/09 06:29:55;;;;;;;;;;;8.10;99.90;;;;;;5034743;28;19909;-68
2023/04/09 06:32:20;;;;;;;;;;;8.10;99.90;;;;;;5034965;28;19906;-68
2023/04/09 06:34:47;;;;;;;;;;;8.30;99.90;;;;;;5035109;28;20000;-68
2023/04/09 06:37:12;;;;;;;;;;;8.50;99.90;;;;;;5035123;28;20346;-68
2023/04/09 06:39:39;;;;;;;;;;;8.70;99.90;;;;;;5035164;28;19955;-68
2023/04/09 06:42:04;;;;;;;;;;;8.70;99.90;;;;;;5017387;28;19912;-68
2023/04/09 06:44:32;;;;;;;;;;;8.90;99.90;;;;;;5034719;28;19913;-67
2023/04/09 06:46:58;;;;;;;;;;;8.90;99.90;;;;;;5034737;28;19984;-69
2023/04/09 06:49:23;;;;;;;;;;;9.00;99.90;;;;;;5034701;28;19996;-67
2023/04/09 06:51:50;;;;;;;;;;;9.00;99.90;;;;;;5005057;28;19913;-69
2023/04/09 06:54:16;;;;;;;;;;;9.00;99.90;;;;;;5014538;28;19911;-69
2023/04/09 06:56:41;;;;;;;;;;;9.00;99.90;;;;;;4997277;28;19905;-69
2023/04/09 06:59:07;;;;;;;;;;;9.00;99.90;;;;;;5014730;28;19964;-68
2023/04/09 07:01:34;;;;;;;;;;;9.00;99.90;;;;;;5014835;28;19951;-68
2023/04/09 07:03:59;;;;;;;;;;;9.10;99.90;;;;;;5014485;28;19906;-67
2023/04/09 07:06:25;;;;;;;;;;;9.20;99.90;;;;;;5014764;28;20004;-68
2023/04/09 07:08:50;;;;;;;;;;;9.20;99.90;;;;;;5014327;28;19913;-68
2023/04/09 07:11:16;;;;;;;;;;;9.30;99.90;;;;;;5014578;28;19909;-68
2023/04/09 07:13:42;;;;;;;;;;;9.40;99.90;;;;;;4996895;28;19959;-68
2023/04/09 07:16:07;;;;;;;;;;;9.40;99.90;;;;;;5014946;28;19906;-68
2023/04/09 07:18:32;;;;;;;;;;;9.50;99.90;;;;;;4996677;28;19905;-68
2023/04/09 07:20:58;;;;;;;;;;;9.60;99.90;;;;;;5014472;28;19905;-67
2023/04/09 07:23:23;;;;;;;;;;;9.50;99.90;;;;;;5014076;28;19985;-68
2023/04/09 07:25:49;;;;;;;;;;;9.70;99.90;;;;;;5014669;28;19912;-67
2023/04/09 07:28:14;;;;;;;;;;;9.70;99.90;;;;;;5014465;28;19936;-66
2023/04/09 07:30:40;;;;;;;;;;;9.80;99.90;;;;;;5019654;28;19905;-67
2023/04/09 07:33:05;;;;;;;;;;;10.00;99.90;;;;;;4998961;28;19960;-67
2023/04/09 07:35:31;;;;;;;;;;;10.00;99.90;;;;;;5017112;28;20323;-68
2023/04/09 07:37:57;;;;;;;;;;;10.20;99.90;;;;;;5016406;28;19906;-67
2023/04/09 07:40:23;;;;;;;;;;;10.20;99.90;;;;;;5015872;28;19974;-67
2023/04/09 07:42:49;;;;;;;;;;;10.20;99.90;;;;;;5015655;28;19909;-67
2023/04/09 07:45:15;;;;;;;;;;;10.30;99.90;;;;;;5015622;28;19940;-67
2023/04/09 07:47:41;;;;;;;;;;;10.30;99.90;;;;;;4998160;28;20212;-67
2023/04/09 07:50:07;;;;;;;;;;;10.40;99.90;;;;;;5014040;28;19912;-67
2023/04/09 07:52:32;;;;;;;;;;;10.40;99.90;;;;;;4996046;28;19937;-67
2023/04/09 07:54:58;;;;;;;;;;;10.50;99.90;;;;;;5067420;22;20006;-69
2023/04/09 07:57:23;;;;;;;;;;;10.60;99.90;;;;;;5057969;28;19904;-69
2023/04/09 07:59:49;;;;;;;;;;;10.70;99.90;;;;;;5061931;28;19905;-70
2023/04/09 08:02:14;;;;;;;;;;;10.80;99.90;;;;;;5054705;28;20276;-70
2023/04/09 08:04:40;;;;;;;;;;;10.80;99.90;;;;;;5056843;28;19985;-68
2023/04/09 08:07:06;;;;;;;;;;;10.90;99.90;;;;;;5036930;28;20012;-68
2023/04/09 08:09:32;;;;;;;;;;;11.00;99.90;;;;;;5041195;28;19989;-69
2023/04/09 08:11:57;;;;;;;;;;;11.10;99.90;;;;;;5016761;28;19995;-68
2023/04/09 08:14:22;;;;;;;;;;;11.20;99.90;;;;;;5023571;28;19950;-68
2023/04/09 08:16:49;;;;;;;;;;;11.40;99.90;;;;;;5050109;28;19905;-69
2023/04/09 08:19:15;;;;;;;;;;;11.40;99.90;;;;;;5047909;28;19997;-68
2023/04/09 08:21:43;;;;;;;;;;;11.50;99.90;;;;;;5042777;28;19920;-69
2023/04/09 08:24:10;;;;;;;;;;;11.40;99.90;;;;;;5033818;28;19905;-68
2023/04/09 08:26:39;;;;;;;;;;;11.60;99.90;;;;;;5033739;28;19912;-68
2023/04/09 08:29:05;;;;;;;;;;;11.80;99.90;;;;;;5028720;28;19955;-68
2023/04/09 08:31:31;;;;;;;;;;;11.90;99.90;;;;;;5041454;28;19913;-68
2023/04/09 08:33:57;;;;;;;;;;;12.10;99.90;;;;;;5035165;28;19913;-68
2023/04/09 08:36:22;;;;;;;;;;;12.30;99.90;;;;;;5037320;28;19920;-67
2023/04/09 08:38:48;;;;;;;;;;;12.30;99.90;;;;;;5037731;28;19905;-68
2023/04/09 08:41:18;;;;;;;;;;;12.60;99.90;;;;;;5037591;28;19905;-68
2023/04/09 08:43:45;;;;;;;;;;;12.90;99.90;;;;;;5019776;28;19909;-69
2023/04/09 08:46:11;;;;;;;;;;;13.60;99.90;;;;;;5019557;28;20005;-68
2023/04/09 08:48:38;;;;;;;;;;;15.20;98.80;;;;;;5037969;28;20000;-68
2023/04/09 08:51:04;;;;;;;;;;;18.10;94.30;;;;;;5019807;28;19978;-67
2023/04/09 08:53:30;;;;;;;;;;;20.30;88.40;;;;;;5018810;28;19909;-68
2023/04/09 08:55:55;;;;;;;;;;;20.80;81.90;;;;;;5018967;28;19916;-69
2023/04/09 08:58:21;;;;;;;;;;;21.80;81.00;;;;;;5036883;28;19988;-69
2023/04/09 09:00:46;;;;;;;;;;;23.30;73.10;;;;;;5036856;28;19915;-70
2023/04/09 09:03:12;;;;;;;;;;;25.10;68.90;;;;;;5019205;28;19936;-69
2023/04/09 09:05:38;;;;;;;;;;;26.50;64.20;;;;;;5036367;28;19955;-68
2023/04/09 09:08:04;;;;;;;;;;;25.90;62.20;;;;;;5018188;28;19919;-69
2023/04/09 09:10:43;;;;;;;;;;;26.10;63.30;;;;;;5013027;28;19913;-67
2023/04/09 09:13:21;;;;;;;;;;;26.80;60.90;;;;;;5027829;28;20385;-68
2023/04/09 09:15:49;;;;;;;;;;;28.50;58.10;;;;;;5017074;28;19909;-68
2023/04/09 09:18:15;;;;;;;;;;;28.00;56.50;;;;;;5029283;28;19988;-68
2023/04/09 09:20:41;;;;;;;;;;;27.60;55.60;;;;;;5016759;28;19952;-72
2023/04/09 09:23:07;;;;;;;;;;;27.60;55.50;;;;;;5016570;28;19951;-70
2023/04/09 09:25:39;;;;;;;;;;;28.80;53.50;;;;;;5015045;28;19905;-71
2023/04/09 09:28:09;;;;;;;;;;;27.90;53.00;;;;;;5015297;28;19917;-67
2023/04/09 09:30:35;;;;;;;;;;;26.20;52.80;;;;;;5017703;28;19909;-67
2023/04/09 09:33:07;;;;;;;;;;;23.80;56.40;;;;;;5018893;28;20314;-66
2023/04/09 09:36:01;;;;;;;;;;;21.50;60.00;;;;;;5035919;28;19929;-67
2023/04/09 09:38:26;;;;;;;;;;;22.30;59.50;;;;;;5033848;28;19935;-68
2023/04/09 09:40:51;;;;;;;;;;;23.10;56.70;;;;;;5035453;28;20336;-67
2023/04/09 09:43:17;;;;;;;;;;;22.50;58.10;;;;;;5016148;28;19906;-67
2023/04/09 09:45:42;;;;;;;;;;;20.60;60.30;;;;;;5033820;28;19905;-68
2023/04/09 09:48:09;;;;;;;;;;;19.00;62.60;;;;;;5016865;28;19962;-67
2023/04/09 09:50:36;;;;;;;;;;;18.30;64.80;;;;;;5034951;28;19905;-66
2023/04/09 09:53:05;;;;;;;;;;;17.50;67.10;;;;;;5034890;28;19905;-67
2023/04/09 09:55:32;;;;;;;;;;;17.30;67.90;;;;;;5017049;28;19913;-67
2023/04/09 09:57:59;;;;;;;;;;;16.70;68.90;;;;;;5017804;28;19913;-67
2023/04/09 10:00:26;;;;;;;;;;;16.20;70.40;;;;;;5035554;28;20352;-67
2023/04/09 10:02:56;;;;;;;;;;;15.70;72.10;;;;;;5035426;28;20064;-67
2023/04/09 10:05:25;;;;;;;;;;;15.30;73.60;;;;;;5035504;28;19905;-67
2023/04/09 10:07:53;;;;;;;;;;;14.80;72.90;;;;;;5035538;28;19931;-67
2023/04/09 10:10:18;;;;;;;;;;;14.50;72.50;;;;;;5035419;28;19948;-67
2023/04/09 10:12:44;;;;;;;;;;;14.50;72.30;;;;;;5035551;28;19912;-67
2023/04/09 10:15:09;;;;;;;;;;;14.60;73.70;;;;;;5017801;28;19906;-67
2023/04/09 10:17:35;;;;;;;;;;;14.70;75.30;;;;;;5035447;28;19912;-67
2023/04/09 10:20:10;;;;;;;;;;;14.80;75.50;;;;;;5036290;28;19913;-67
2023/04/09 10:22:36;;;;;;;;;;;14.60;76.60;;;;;;5035967;28;20280;-67
2023/04/09 10:25:03;;;;;;;;;;;14.60;76.60;;;;;;5016784;28;19913;-67
2023/04/09 10:27:28;;;;;;;;;;;14.40;77.60;;;;;;5035629;28;19963;-67
2023/04/09 10:29:54;;;;;;;;;;;15.70;76.90;;;;;;5035914;28;19951;-67
2023/04/09 10:32:21;;;;;;;;;;;17.50;72.50;;;;;;5017766;28;19909;-68
2023/04/09 10:34:48;;;;;;;;;;;18.90;68.50;;;;;;5035749;28;19905;-68
2023/04/09 10:37:15;;;;;;;;;;;19.90;65.70;;;;;;5035600;28;19905;-68
2023/04/09 10:39:44;;;;;;;;;;;19.30;64.20;;;;;;5035139;28;19905;-68
2023/04/09 10:42:14;;;;;;;;;;;17.70;67.60;;;;;;5035655;28;19916;-66
2023/04/09 10:44:43;;;;;;;;;;;16.80;70.20;;;;;;5035731;28;20423;-65
2023/04/09 10:47:09;;;;;;;;;;;16.30;71.90;;;;;;5035871;28;19905;-67
2023/04/09 10:49:35;;;;;;;;;;;16.30;71.10;;;;;;5035312;28;19912;-68
2023/04/09 10:52:02;;;;;;;;;;;16.20;68.80;;;;;;5018020;28;19905;-68
2023/04/09 10:54:34;;;;;;;;;;;16.10;67.90;;;;;;5036649;28;19924;-68
2023/04/09 10:57:09;;;;;;;;;;;16.10;65.70;;;;;;5036398;28;19905;-68
2023/04/09 10:59:39;;;;;;;;;;;15.70;64.60;;;;;;5037278;28;20324;-68
2023/04/09 11:02:09;;;;;;;;;;;15.70;65.20;;;;;;5019749;28;19912;-67
2023/04/09 11:04:37;;;;;;;;;;;15.90;65.50;;;;;;5039234;28;19912;-67
2023/04/09 11:07:04;;;;;;;;;;;16.10;64.90;;;;;;5038286;28;19912;-68
2023/04/09 11:09:33;;;;;;;;;;;16.20;64.50;;;;;;5036579;28;19912;-67
2023/04/09 11:11:59;;;;;;;;;;;16.00;64.70;;;;;;5036575;28;19909;-67
2023/04/09 11:14:25;;;;;;;;;;;16.00;65.10;;;;;;5035600;28;19912;-67
2023/04/09 11:16:50;;;;;;;;;;;16.00;64.40;;;;;;5035336;28;19905;-67
2023/04/09 11:19:16;;;;;;;;;;;16.20;64.60;;;;;;5035286;28;20000;-66
2023/04/09 11:21:45;;;;;;;;;;;16.20;64.70;;;;;;5036676;28;20357;-68
2023/04/09 11:24:14;;;;;;;;;;;16.20;64.60;;;;;;5035613;28;19955;-67
2023/04/09 11:26:40;;;;;;;;;;;16.20;64.70;;;;;;5035491;28;19909;-68
2023/04/09 11:29:08;;;;;;;;;;;16.20;64.90;;;;;;5035566;28;20326;-68
2023/04/09 11:31:34;;;;;;;;;;;16.10;64.50;;;;;;5034976;28;19905;-67
2023/04/09 11:34:00;;;;;;;;;;;15.90;64.30;;;;;;5033811;28;19912;-66
2023/04/09 11:36:28;;;;;;;;;;;16.00;65.20;;;;;;5033927;28;19912;-67
2023/04/09 11:38:54;;;;;;;;;;;16.20;65.30;;;;;;5033961;28;19912;-69
2023/04/09 11:41:32;;;;;;;;;;;16.20;64.80;;;;;;5033628;28;19912;-67
2023/04/09 11:43:57;;;;;;;;;;;16.20;65.50;;;;;;5034147;28;19916;-67
2023/04/09 11:46:24;;;;;;;;;;;16.50;64.40;;;;;;5034090;28;19905;-67
2023/04/09 11:48:51;;;;;;;;;;;16.10;65.80;;;;;;5033928;28;19912;-68
2023/04/09 11:51:17;;;;;;;;;;;15.50;67.10;;;;;;5033934;28;20411;-67
2023/04/09 11:53:42;;;;;;;;;;;15.60;67.60;;;;;;5014487;28;19905;-67
2023/04/09 11:56:08;;;;;;;;;;;15.80;66.30;;;;;;5012806;28;19941;-68
2023/04/09 11:58:34;;;;;;;;;;;16.00;66.60;;;;;;5013889;28;19944;-68
2023/04/09 12:00:59;;;;;;;;;;;16.00;66.10;;;;;;5012744;28;20023;-67
2023/04/09 12:03:31;;;;;;;;;;;16.00;66.00;;;;;;5014619;28;19905;-67
2023/04/09 12:05:59;;;;;;;;;;;15.60;66.20;;;;;;5015143;28;19944;-68
2023/04/09 12:08:26;;;;;;;;;;;15.30;67.00;;;;;;5014036;28;20362;-67
2023/04/09 12:10:51;;;;;;;;;;;15.60;66.50;;;;;;5014012;28;19948;-66
2023/04/09 12:13:17;;;;;;;;;;;16.00;66.00;;;;;;4996680;28;19909;-68
2023/04/09 12:15:42;;;;;;;;;;;16.10;64.40;;;;;;5014150;28;19905;-66
2023/04/09 12:18:09;;;;;;;;;;;16.10;64.20;;;;;;5012357;28;19906;-67
2023/04/09 12:20:35;;;;;;;;;;;16.10;64.20;;;;;;5014140;28;19905;-67
2023/04/09 12:23:02;;;;;;;;;;;16.20;64.30;;;;;;5013852;28;19912;-67
2023/04/09 12:25:31;;;;;;;;;;;15.90;64.30;;;;;;5008014;28;20285;-67
2023/04/09 12:27:57;;;;;;;;;;;16.00;64.00;;;;;;5012144;28;20032;-68
2023/04/09 12:30:23;;;;;;;;;;;15.90;64.30;;;;;;5012095;28;19906;-67
2023/04/09 12:32:49;;;;;;;;;;;15.70;64.60;;;;;;5013443;28;19905;-67
2023/04/09 12:35:14;;;;;;;;;;;15.30;65.50;;;;;;5013397;28;19906;-67
2023/04/09 12:37:40;;;;;;;;;;;15.70;65.00;;;;;;5013416;28;20434;-67
2023/04/09 12:40:06;;;;;;;;;;;16.10;64.60;;;;;;5013309;28;19906;-66
2023/04/09 12:42:32;;;;;;;;;;;16.00;63.50;;;;;;5013376;28;19976;-68
2023/04/09 12:44:57;;;;;;;;;;;16.00;64.40;;;;;;5013205;28;19916;-67
2023/04/09 12:47:22;;;;;;;;;;;16.00;64.60;;;;;;5013621;28;20444;-68
2023/04/09 12:49:49;;;;;;;;;;;15.90;64.90;;;;;;5017001;28;19912;-67
2023/04/09 12:52:15;;;;;;;;;;;16.00;64.60;;;;;;5015681;28;19906;-66
2023/04/09 12:54:40;;;;;;;;;;;16.00;64.40;;;;;;5015791;28;19919;-66
2023/04/09 12:57:07;;;;;;;;;;;16.10;63.50;;;;;;5017376;28;19909;-66
2023/04/09 12:59:32;;;;;;;;;;;15.80;63.80;;;;;;5016752;28;19912;-68
2023/04/09 13:01:58;;;;;;;;;;;15.70;64.00;;;;;;5018896;28;19905;-67
2023/04/09 13:04:23;;;;;;;;;;;15.70;64.10;;;;;;5020013;28;19905;-67
2023/04/09 13:06:49;;;;;;;;;;;15.60;63.70;;;;;;5018634;28;19912;-67
2023/04/09 13:09:14;;;;;;;;;;;15.60;64.30;;;;;;5016915;28;19916;-68
2023/04/09 13:11:40;;;;;;;;;;;15.30;63.70;;;;;;5016528;28;19959;-67
2023/04/09 13:14:05;;;;;;;;;;;15.50;63.60;;;;;;5015306;28;19905;-66
2023/04/09 13:16:31;;;;;;;;;;;15.60;64.30;;;;;;5016347;28;19905;-67
2023/04/09 13:18:57;;;;;;;;;;;15.70;64.00;;;;;;5015144;28;19905;-66
2023/04/09 13:21:22;;;;;;;;;;;15.70;63.20;;;;;;5015139;28;19923;-67
2023/04/09 13:23:48;;;;;;;;;;;15.70;63.30;;;;;;5020810;28;19909;-68
2023/04/09 13:26:13;;;;;;;;;;;15.90;62.90;;;;;;5018551;28;20269;-67
2023/04/09 13:28:39;;;;;;;;;;;15.80;62.80;;;;;;5035987;28;20004;-67
2023/04/09 13:31:05;;;;;;;;;;;15.80;63.40;;;;;;5036214;28;20294;-67
2023/04/09 13:33:30;;;;;;;;;;;15.90;63.60;;;;;;5036215;28;19905;-67
2023/04/09 13:35:56;;;;;;;;;;;16.10;62.80;;;;;;5036418;28;20349;-68
2023/04/09 13:38:21;;;;;;;;;;;16.30;63.30;;;;;;5035885;28;19912;-67
2023/04/09 13:40:47;;;;;;;;;;;16.00;63.10;;;;;;5035591;28;19909;-67
2023/04/09 13:43:12;;;;;;;;;;;15.90;63.20;;;;;;5018506;28;20401;-67
2023/04/09 13:45:38;;;;;;;;;;;16.10;62.70;;;;;;5037699;28;19917;-67
2023/04/09 13:48:05;;;;;;;;;;;16.20;62.50;;;;;;5037571;28;20422;-67
2023/04/09 13:50:30;;;;;;;;;;;16.20;62.80;;;;;;5037153;28;19908;-68
2023/04/09 13:52:55;;;;;;;;;;;15.90;62.60;;;;;;5037683;28;19972;-67
2023/04/09 13:55:21;;;;;;;;;;;15.80;62.60;;;;;;5036521;28;19917;-67
2023/04/09 13:57:46;;;;;;;;;;;15.70;62.90;;;;;;5035962;28;20419;-67
2023/04/09 14:00:12;;;;;;;;;;;15.60;63.40;;;;;;5035373;28;20273;-68
2023/04/09 14:02:37;;;;;;;;;;;15.40;63.80;;;;;;5036572;28;19916;-67
2023/04/09 14:05:03;;;;;;;;;;;15.20;64.40;;;;;;5036293;28;20360;-66
2023/04/09 14:07:29;;;;;;;;;;;15.20;64.20;;;;;;5035753;28;19908;-66
2023/04/09 14:09:55;;;;;;;;;;;15.40;64.10;;;;;;5035478;28;19958;-66
2023/04/09 14:12:20;;;;;;;;;;;15.50;63.90;;;;;;5035845;28;19909;-67
2023/04/09 14:14:46;;;;;;;;;;;15.50;64.00;;;;;;5035198;28;19912;-67
2023/04/09 14:17:11;;;;;;;;;;;15.60;64.50;;;;;;5035584;28;19912;-67